KBOI/BOI METAR and TAF weather

Enter ICAO airport designator
Station Type Date Time Source
KBOI METAR 2020/01/22 17:53 UTC NOAA

KBOI 221753Z 13005KT 10SM BKN075 02/00 A3019 RMK AO2 SLP238 T00220000 10022 21022 53015


Station Type Date Time Source
KBOI Decoded METAR 2020/01/22 17:53 UTC NOAA

BOISE AIR TERMINAL, ID, United States (KBOI) 43-34N 116-14W 875M
Jan 22, 2020 - 12:53 PM EST / 2020.01.22 1753 UTC
Wind: from the SE (130 degrees) at 6 MPH (5 KT):0
Visibility: 10 mile(s):0
Sky conditions: mostly cloudy
Temperature: 36.0 F (2.2 C)
Dew Point: 32.0 F (0.0 C)
Relative Humidity: 85%
Pressure (altimeter): 30.19 in. Hg (1022 hPa)
Pressure tendency: 0.04 inches (1.5 hPa) higher than three hours ago
ob: KBOI 221753Z 13005KT 10SM BKN075 02/00 A3019 RMK AO2 SLP238 T00220000 10022 21022 53015
cycle: 18

Station Type Date Time Source
KBOI TAF 2020/01/22 18:27 UTC NOAA

TAF KBOI 221725Z 2218/2318 13006KT P6SM OVC060
FM222300 13006KT 6SM -SHRA OVC035
TEMPO 2312/2315 3SM -SHRA BR OVC025
FM231600 13006KT P6SM OVC050

Example: see airport list